Time;durP1;ratioP1;P1;durP2;ratioP2;P2;SDS_P1;SDS_P2;PMS_P1;PMS_P2;Temp;Humidity;BMP_temperature;BMP_pressure;BME280_temperature;BME280_humidity;BME280_pressure;Samples;Min_cycle;Max_cycle;Signal;HPM_P1;HPM_P2
2022/09/02 00:01:01;;;;;;;7.13;6.43;;;13.20;99.90;;;;;;5065777;28;20850;-57
2022/09/02 00:03:30;;;;;;;6.13;5.57;;;13.10;99.90;;;;;;5071878;28;20278;-56
2022/09/02 00:05:56;;;;;;;8.03;5.87;;;13.10;99.90;;;;;;5050722;28;20447;-56
2022/09/02 00:08:21;;;;;;;8.00;7.20;;;13.10;99.90;;;;;;5064135;28;20558;-56
2022/09/02 00:10:47;;;;;;;8.77;7.07;;;13.10;99.90;;;;;;5065175;28;20599;-57
2022/09/02 00:13:17;;;;;;;11.63;7.27;;;13.00;99.90;;;;;;5072471;28;20178;-56
2022/09/02 00:15:43;;;;;;;9.73;8.70;;;13.00;99.90;;;;;;5057065;28;20177;-57
2022/09/02 00:18:11;;;;;;;9.90;7.93;;;13.00;99.90;;;;;;5064371;28;20460;-57
2022/09/02 00:20:39;;;;;;;8.30;7.60;;;13.00;99.90;;;;;;5063122;28;20437;-56
2022/09/02 00:23:05;;;;;;;6.33;5.83;;;12.90;99.90;;;;;;5068703;28;20428;-57
2022/09/02 00:25:31;;;;;;;6.60;5.90;;;12.90;99.90;;;;;;5043740;28;20814;-56
2022/09/02 00:27:56;;;;;;;11.03;6.70;;;12.90;99.90;;;;;;5059353;28;20743;-56
2022/09/02 00:30:22;;;;;;;7.00;5.73;;;12.90;99.90;;;;;;5063355;28;20428;-57
2022/09/02 00:32:48;;;;;;;6.50;6.00;;;12.90;99.90;;;;;;5054454;28;20707;-56
2022/09/02 00:35:14;;;;;;;8.37;5.57;;;12.80;99.90;;;;;;5055736;28;20198;-58
2022/09/02 00:37:39;;;;;;;6.53;5.80;;;12.80;99.90;;;;;;5060431;28;20222;-56
2022/09/02 00:40:07;;;;;;;6.93;5.33;;;12.80;99.90;;;;;;5058917;28;20175;-57
2022/09/02 00:42:33;;;;;;;6.10;5.50;;;12.80;99.90;;;;;;5055403;28;20196;-57
2022/09/02 00:45:00;;;;;;;6.67;5.27;;;12.80;99.90;;;;;;5062491;28;20471;-57
2022/09/02 00:47:26;;;;;;;7.97;6.37;;;12.70;99.90;;;;;;5061192;28;20961;-56
2022/09/02 00:49:53;;;;;;;8.40;5.40;;;12.70;99.90;;;;;;5061025;28;20451;-56
2022/09/02 00:52:28;;;;;;;6.30;5.70;;;12.70;99.90;;;;;;5059529;28;20212;-57
2022/09/02 00:55:23;;;;;;;5.80;5.13;;;12.70;99.90;;;;;;5063068;28;21029;-57
2022/09/02 00:58:12;;;;;;;5.30;4.80;;;12.60;99.90;;;;;;5053244;28;20460;-57
2022/09/02 01:00:43;;;;;;;5.70;5.20;;;12.60;99.90;;;;;;5061653;28;20490;-56
2022/09/02 01:03:12;;;;;;;7.60;4.90;;;12.60;99.90;;;;;;5065182;28;20417;-55
2022/09/02 01:05:43;;;;;;;9.87;5.33;;;12.60;99.90;;;;;;5054843;28;20461;-57
2022/09/02 01:08:09;;;;;;;7.67;5.13;;;12.60;99.90;;;;;;5059260;28;20455;-57
2022/09/02 01:10:35;;;;;;;7.37;5.90;;;12.50;99.90;;;;;;5065693;28;20521;-54
2022/09/02 01:13:07;;;;;;;5.17;4.60;;;12.50;99.90;;;;;;5068587;28;20507;-56
2022/09/02 01:15:42;;;;;;;7.30;5.40;;;12.50;99.90;;;;;;5059752;28;20166;-55
2022/09/02 01:18:09;;;;;;;6.40;5.33;;;12.50;99.90;;;;;;5039730;28;20452;-57
2022/09/02 01:20:35;;;;;;;7.23;5.00;;;12.40;99.90;;;;;;5063804;28;20466;-56
2022/09/02 01:23:01;;;;;;;5.57;4.80;;;12.40;99.90;;;;;;5059317;28;20472;-56
2022/09/02 01:25:31;;;;;;;6.20;5.60;;;12.40;99.90;;;;;;5059032;28;20206;-56
2022/09/02 01:28:16;;;;;;;6.37;5.77;;;12.40;99.90;;;;;;5062242;28;20482;-57
2022/09/02 01:30:50;;;;;;;6.37;5.00;;;12.40;99.90;;;;;;5057791;28;20428;-56
2022/09/02 01:33:17;;;;;;;8.17;6.40;;;12.40;99.90;;;;;;5055161;28;20762;-55
2022/09/02 01:35:43;;;;;;;6.57;5.50;;;12.40;99.90;;;;;;5057036;28;20518;-56
2022/09/02 01:38:10;;;;;;;5.33;4.70;;;12.40;99.90;;;;;;5019467;28;1068822;-56
2022/09/02 01:40:36;;;;;;;7.20;5.27;;;12.40;99.90;;;;;;5066082;28;20170;-56
2022/09/02 01:43:06;;;;;;;7.13;4.87;;;12.40;99.90;;;;;;5064229;28;20447;-55
2022/09/02 01:45:33;;;;;;;5.90;5.03;;;12.40;99.90;;;;;;5054298;28;20170;-55
2022/09/02 01:47:59;;;;;;;7.47;5.57;;;12.40;99.90;;;;;;5057966;28;20634;-55
2022/09/02 01:50:25;;;;;;;5.27;4.80;;;12.40;99.90;;;;;;5061960;28;20511;-55
2022/09/02 01:52:50;;;;;;;6.80;4.97;;;12.40;99.90;;;;;;5065111;28;20163;-55
2022/09/02 01:55:16;;;;;;;6.80;4.40;;;12.30;99.90;;;;;;5053738;28;20202;-57
2022/09/02 01:57:41;;;;;;;7.50;4.63;;;12.30;99.90;;;;;;5064656;28;20598;-56
2022/09/02 02:00:09;;;;;;;5.57;4.80;;;12.20;99.90;;;;;;5062967;28;20677;-55
2022/09/02 02:02:35;;;;;;;5.90;4.33;;;12.20;99.90;;;;;;5063950;28;20178;-56
2022/09/02 02:05:01;;;;;;;5.50;4.60;;;12.20;99.90;;;;;;5042853;28;20460;-57
2022/09/02 02:07:27;;;;;;;5.13;4.60;;;12.10;99.90;;;;;;5067642;28;20531;-55
2022/09/02 02:09:52;;;;;;;10.20;5.13;;;12.10;99.90;;;;;;5062618;28;20578;-56
2022/09/02 02:12:19;;;;;;;12.53;5.03;;;12.10;99.90;;;;;;5064742;28;20261;-56
2022/09/02 02:14:44;;;;;;;4.97;4.47;;;12.00;99.90;;;;;;5056223;28;20205;-55
2022/09/02 02:17:10;;;;;;;6.43;4.80;;;12.00;99.90;;;;;;5061445;28;20905;-55
2022/09/02 02:19:36;;;;;;;5.50;4.53;;;12.00;99.90;;;;;;5062134;28;20200;-55
2022/09/02 02:22:02;;;;;;;5.40;4.70;;;11.90;99.90;;;;;;5051549;28;20265;-55
2022/09/02 02:24:27;;;;;;;4.77;4.30;;;11.90;99.90;;;;;;5053302;28;20311;-55
2022/09/02 02:26:53;;;;;;;4.67;4.23;;;11.90;99.90;;;;;;5054225;28;20534;-55
2022/09/02 02:29:20;;;;;;;4.93;4.40;;;11.90;99.90;;;;;;5059087;28;20499;-56
2022/09/02 02:31:45;;;;;;;5.67;4.47;;;11.80;99.90;;;;;;5062038;28;20178;-55
2022/09/02 02:34:11;;;;;;;6.60;4.30;;;11.80;99.90;;;;;;5045029;28;20895;-56
2022/09/02 02:36:38;;;;;;;5.87;4.20;;;11.80;99.90;;;;;;5063108;28;20223;-57
2022/09/02 02:39:06;;;;;;;5.93;4.00;;;11.80;99.90;;;;;;5062247;28;20210;-56
2022/09/02 02:41:32;;;;;;;4.90;4.40;;;11.80;99.90;;;;;;5063739;28;20520;-56
2022/09/02 02:43:58;;;;;;;4.90;4.43;;;11.80;99.90;;;;;;5066620;28;20503;-55
2022/09/02 02:46:25;;;;;;;6.57;4.50;;;11.80;99.90;;;;;;5061675;28;20436;-55
2022/09/02 02:48:50;;;;;;;4.30;3.90;;;11.80;99.90;;;;;;5062340;28;20452;-55
2022/09/02 02:51:16;;;;;;;6.00;4.80;;;11.80;99.90;;;;;;5066384;28;20437;-55
2022/09/02 02:53:42;;;;;;;4.83;4.33;;;11.90;99.90;;;;;;5068194;28;20264;-55
2022/09/02 02:56:08;;;;;;;4.60;4.20;;;11.90;99.90;;;;;;5067235;28;20186;-56
2022/09/02 02:58:34;;;;;;;6.03;4.40;;;11.90;99.90;;;;;;5066813;28;20699;-56
2022/09/02 03:01:00;;;;;;;5.03;4.10;;;11.90;99.90;;;;;;5066693;28;20440;-55
2022/09/02 03:03:27;;;;;;;11.73;5.10;;;11.90;99.90;;;;;;5064345;28;20432;-56
2022/09/02 03:05:53;;;;;;;5.13;4.20;;;11.90;99.90;;;;;;5071261;28;20433;-57
2022/09/02 03:08:20;;;;;;;4.97;4.50;;;11.80;99.90;;;;;;5065847;28;20989;-56
2022/09/02 03:10:48;;;;;;;5.83;4.87;;;11.80;99.90;;;;;;5049173;28;21007;-56
2022/09/02 03:13:14;;;;;;;5.97;4.10;;;11.80;99.90;;;;;;5068420;28;20508;-55
2022/09/02 03:15:40;;;;;;;5.20;4.70;;;11.80;99.90;;;;;;5058761;28;20520;-55
2022/09/02 03:18:07;;;;;;;4.90;4.40;;;11.80;99.90;;;;;;5061731;28;20442;-56
2022/09/02 03:20:33;;;;;;;4.63;4.20;;;11.80;99.90;;;;;;5061956;28;21118;-56
2022/09/02 03:22:59;;;;;;;4.67;3.63;;;11.80;99.90;;;;;;5068709;28;20440;-57
2022/09/02 03:25:27;;;;;;;4.20;3.80;;;11.70;99.90;;;;;;5067079;28;20491;-56
2022/09/02 03:27:53;;;;;;;5.23;4.33;;;11.70;99.90;;;;;;5041412;28;20205;-56
2022/09/02 03:30:24;;;;;;;7.07;4.60;;;11.70;99.90;;;;;;5073835;28;20433;-54
2022/09/02 03:32:51;;;;;;;4.13;3.77;;;11.70;99.90;;;;;;5065976;28;20158;-60
2022/09/02 03:35:20;;;;;;;6.33;4.40;;;11.60;99.90;;;;;;5063553;28;20866;-55
2022/09/02 03:37:46;;;;;;;4.50;3.97;;;11.60;99.90;;;;;;5059315;28;20460;-57
2022/09/02 03:40:17;;;;;;;6.00;4.00;;;11.70;99.90;;;;;;5064568;28;20480;-56
2022/09/02 03:42:43;;;;;;;5.67;4.27;;;11.70;99.90;;;;;;5058361;28;20479;-56
2022/09/02 03:45:10;;;;;;;8.60;6.07;;;11.70;99.90;;;;;;5085453;22;20501;-56
2022/09/02 03:47:39;;;;;;;8.00;6.10;;;11.70;99.90;;;;;;5042906;28;20203;-55
2022/09/02 03:50:05;;;;;;;6.00;4.33;;;11.70;99.90;;;;;;5045922;28;20823;-56
2022/09/02 03:52:31;;;;;;;7.53;4.57;;;11.70;99.90;;;;;;5046534;28;20428;-56
2022/09/02 03:54:57;;;;;;;6.03;4.63;;;11.70;99.90;;;;;;5035918;28;20460;-57
2022/09/02 03:57:26;;;;;;;5.23;4.57;;;11.70;99.90;;;;;;5043280;28;20176;-56
2022/09/02 03:59:51;;;;;;;5.47;4.57;;;11.70;99.90;;;;;;5043351;28;20191;-55
2022/09/02 04:02:17;;;;;;;7.67;4.83;;;11.70;99.90;;;;;;5045790;28;20835;-55
2022/09/02 04:04:43;;;;;;;6.13;4.50;;;11.70;99.90;;;;;;5035709;28;20202;-56
2022/09/02 04:07:09;;;;;;;5.37;4.57;;;11.70;99.90;;;;;;5049040;28;20203;-56
2022/09/02 04:09:34;;;;;;;5.13;4.63;;;11.70;99.90;;;;;;5047382;28;20254;-55
2022/09/02 04:12:00;;;;;;;14.30;4.97;;;11.60;99.90;;;;;;5045784;28;20202;-55
2022/09/02 04:14:26;;;;;;;8.00;5.00;;;11.60;99.90;;;;;;5037201;28;20266;-54
2022/09/02 04:23:36;;;;;;;4.97;4.43;;;11.50;99.90;;;;;;5035494;28;20449;-55
2022/09/02 04:26:07;;;;;;;8.93;4.27;;;11.50;99.90;;;;;;5038258;28;20540;-56
2022/09/02 04:28:33;;;;;;;4.27;3.83;;;11.40;99.90;;;;;;5021871;28;20417;-54
2022/09/02 04:30:59;;;;;;;6.43;3.93;;;11.30;99.90;;;;;;5038340;28;20603;-56
2022/09/02 04:33:24;;;;;;;4.23;3.93;;;11.30;99.90;;;;;;5039385;28;22394;-57
2022/09/02 04:35:51;;;;;;;4.30;3.90;;;11.20;99.90;;;;;;5029879;28;20711;-58
2022/09/02 04:38:17;;;;;;;4.33;3.87;;;11.20;99.90;;;;;;5037878;28;20270;-57
2022/09/02 04:40:44;;;;;;;6.30;4.10;;;11.20;99.90;;;;;;5040351;28;20567;-58
2022/09/02 04:43:11;;;;;;;4.10;3.70;;;11.20;99.90;;;;;;5042446;28;20183;-59
2022/09/02 04:45:42;;;;;;;5.40;4.10;;;11.10;99.90;;;;;;5038529;28;20554;-57
2022/09/02 04:48:07;;;;;;;6.60;4.43;;;11.10;99.90;;;;;;5042655;28;20426;-56
2022/09/02 04:50:35;;;;;;;5.50;4.17;;;11.10;99.90;;;;;;5049761;28;20436;-56
2022/09/02 04:53:01;;;;;;;5.43;4.00;;;11.10;99.90;;;;;;5042625;28;20663;-55
2022/09/02 04:55:27;;;;;;;5.40;4.00;;;11.10;99.90;;;;;;5039570;28;20450;-64
2022/09/02 04:57:52;;;;;;;5.73;5.23;;;11.00;99.90;;;;;;5048601;28;20178;-57
2022/09/02 05:00:18;;;;;;;7.50;6.80;;;11.00;99.90;;;;;;5048678;28;20167;-56
2022/09/02 05:02:44;;;;;;;7.47;5.80;;;11.00;99.90;;;;;;5047138;28;20181;-56
2022/09/02 05:05:10;;;;;;;8.67;5.30;;;11.00;99.90;;;;;;5039292;28;20207;-56
2022/09/02 05:07:36;;;;;;;5.27;4.47;;;11.00;99.90;;;;;;5046768;28;20174;-57
2022/09/02 05:10:04;;;;;;;5.93;4.87;;;11.00;99.90;;;;;;5045271;28;20177;-57
2022/09/02 05:12:33;;;;;;;5.13;4.63;;;11.00;99.90;;;;;;5044833;28;20506;-57
2022/09/02 05:15:00;;;;;;;5.97;4.40;;;11.00;99.90;;;;;;5040973;28;20500;-55
2022/09/02 05:17:26;;;;;;;4.17;3.83;;;11.00;99.90;;;;;;5041944;28;20946;-57
2022/09/02 05:19:52;;;;;;;7.50;4.60;;;11.00;99.90;;;;;;5045260;28;20463;-58
2022/09/02 05:22:18;;;;;;;5.30;4.47;;;11.00;99.90;;;;;;5045133;28;20428;-56
2022/09/02 05:24:44;;;;;;;6.23;4.77;;;11.00;99.90;;;;;;5045003;28;20249;-57
2022/09/02 05:27:10;;;;;;;4.83;4.37;;;11.00;99.90;;;;;;5040261;28;20430;-57
2022/09/02 05:29:36;;;;;;;10.83;4.97;;;11.00;99.90;;;;;;5040450;28;21190;-56
2022/09/02 05:32:03;;;;;;;4.80;4.30;;;11.10;99.90;;;;;;5041093;28;20491;-55
2022/09/02 05:34:28;;;;;;;7.33;5.20;;;11.20;99.90;;;;;;5043716;28;20179;-57
2022/09/02 05:36:54;;;;;;;3.90;3.60;;;11.20;99.90;;;;;;5040704;28;20434;-55
2022/09/02 05:39:20;;;;;;;4.77;4.20;;;11.30;99.90;;;;;;5040873;28;20191;-56
2022/09/02 05:41:46;;;;;;;4.77;4.10;;;11.30;99.90;;;;;;5041468;28;20537;-58
2022/09/02 05:44:11;;;;;;;5.73;4.60;;;11.40;99.90;;;;;;5038085;28;20504;-57
2022/09/02 05:46:37;;;;;;;9.03;4.40;;;11.50;99.90;;;;;;5040343;28;20671;-57
2022/09/02 05:49:16;;;;;;;4.57;4.17;;;11.50;99.90;;;;;;5040966;28;20191;-58
2022/09/02 05:51:46;;;;;;;7.53;4.40;;;11.60;99.90;;;;;;5042526;28;20546;-57
2022/09/02 05:54:17;;;;;;;6.43;3.90;;;11.70;99.90;;;;;;5042465;28;21242;-57
2022/09/02 05:56:45;;;;;;;5.23;4.43;;;11.70;99.90;;;;;;5044612;28;20790;-57
2022/09/02 05:59:11;;;;;;;5.43;4.20;;;11.80;99.90;;;;;;5042972;28;20445;-56
2022/09/02 06:01:37;;;;;;;4.20;3.80;;;11.90;99.90;;;;;;5044114;28;20437;-57
2022/09/02 06:04:04;;;;;;;5.53;4.10;;;12.00;99.90;;;;;;5039480;28;20450;-57
2022/09/02 06:06:30;;;;;;;8.87;4.67;;;12.00;99.90;;;;;;5040268;28;20245;-57
2022/09/02 06:08:57;;;;;;;6.30;4.43;;;12.10;99.90;;;;;;5041770;28;20728;-56
2022/09/02 06:11:23;;;;;;;9.23;5.00;;;12.20;99.90;;;;;;5042440;28;20759;-57
2022/09/02 06:13:50;;;;;;;5.80;5.30;;;12.30;99.90;;;;;;5041647;28;20421;-57
2022/09/02 06:16:18;;;;;;;5.90;5.30;;;12.40;99.90;;;;;;5043035;28;20543;-56
2022/09/02 06:18:45;;;;;;;6.50;5.60;;;12.50;99.90;;;;;;5043318;28;20437;-57
2022/09/02 06:21:11;;;;;;;5.70;5.10;;;12.60;99.90;;;;;;5046170;28;20429;-57
2022/09/02 06:23:38;;;;;;;6.53;5.33;;;12.70;99.90;;;;;;5045646;28;20935;-57
2022/09/02 06:26:05;;;;;;;5.97;5.33;;;12.80;99.90;;;;;;5046719;28;21112;-56
2022/09/02 06:28:31;;;;;;;6.67;5.43;;;12.90;99.90;;;;;;5047881;28;20430;-58
2022/09/02 06:30:57;;;;;;;9.03;5.00;;;13.00;99.90;;;;;;5047070;28;20434;-58
2022/09/02 06:33:23;;;;;;;12.90;5.87;;;13.10;99.90;;;;;;5044931;28;20867;-56
2022/09/02 06:35:48;;;;;;;7.60;5.37;;;13.20;99.90;;;;;;5039890;28;20775;-56
2022/09/02 06:38:15;;;;;;;12.77;5.37;;;13.30;99.90;;;;;;5049379;28;20433;-56
2022/09/02 06:40:50;;;;;;;5.03;4.17;;;13.40;99.90;;;;;;5046931;28;20178;-59
2022/09/02 06:43:15;;;;;;;11.77;5.57;;;13.50;99.90;;;;;;5036844;28;20468;-56
2022/09/02 06:45:42;;;;;;;5.77;4.63;;;13.60;99.90;;;;;;5046200;28;20538;-58
2022/09/02 06:48:08;;;;;;;5.27;4.77;;;13.60;99.90;;;;;;5044245;28;20258;-58
2022/09/02 06:50:38;;;;;;;8.83;5.20;;;13.70;99.90;;;;;;5045928;28;20465;-58
2022/09/02 06:53:07;;;;;;;7.23;5.37;;;13.80;99.90;;;;;;5042604;28;20430;-57
2022/09/02 06:55:35;;;;;;;6.13;4.93;;;13.90;99.90;;;;;;5038834;28;20451;-56
2022/09/02 06:58:02;;;;;;;6.53;5.23;;;13.90;99.90;;;;;;5045493;28;20429;-58
2022/09/02 07:00:27;;;;;;;6.80;4.97;;;14.00;99.90;;;;;;5045620;28;20425;-56
2022/09/02 07:05:08;;;;;;;8.70;5.20;;;14.00;99.90;;;;;;5044762;28;20429;-57
2022/09/02 07:05:39;;;;;;;8.03;4.40;;;14.10;99.90;;;;;;5042829;28;20227;-57
2022/09/02 07:08:04;;;;;;;7.27;6.57;;;14.10;99.50;;;;;;5040767;28;20648;-57
2022/09/02 07:10:30;;;;;;;7.43;5.40;;;14.20;99.60;;;;;;5045858;28;21148;-58
2022/09/02 07:12:56;;;;;;;7.03;5.37;;;14.20;99.40;;;;;;5048774;28;20698;-56
2022/09/02 07:15:22;;;;;;;6.07;5.20;;;14.30;99.20;;;;;;5042210;28;20310;-57
2022/09/02 07:17:48;;;;;;;6.60;5.10;;;14.30;99.90;;;;;;5042456;28;20773;-58
2022/09/02 07:20:14;;;;;;;7.30;4.80;;;14.40;99.90;;;;;;5048772;28;20975;-57
2022/09/02 07:22:40;;;;;;;6.50;4.57;;;14.50;99.90;;;;;;5047597;28;20632;-56
2022/09/02 07:25:07;;;;;;;10.73;5.23;;;14.60;99.40;;;;;;5045144;28;20468;-56
2022/09/02 07:27:34;;;;;;;5.60;4.63;;;14.70;99.10;;;;;;5041487;28;20248;-56
2022/09/02 07:29:59;;;;;;;5.77;4.60;;;14.80;98.50;;;;;;5046887;28;20426;-57
2022/09/02 07:32:25;;;;;;;5.50;4.83;;;14.90;97.60;;;;;;5045438;28;20432;-57
2022/09/02 07:34:51;;;;;;;6.20;4.60;;;15.00;97.30;;;;;;5044302;28;20214;-56
2022/09/02 07:37:16;;;;;;;5.77;4.00;;;15.00;97.10;;;;;;5041776;28;20919;-55
2022/09/02 07:39:44;;;;;;;5.20;4.30;;;15.10;95.30;;;;;;5040782;28;20179;-55
2022/09/02 07:42:10;;;;;;;5.13;4.30;;;15.10;95.60;;;;;;5042329;28;20266;-59
2022/09/02 07:44:36;;;;;;;5.13;4.63;;;15.20;95.40;;;;;;5042980;28;20524;-59
2022/09/02 07:47:03;;;;;;;8.93;5.43;;;15.20;95.80;;;;;;5006013;28;20525;-59
2022/09/02 07:49:29;;;;;;;5.63;4.97;;;15.30;94.90;;;;;;5044193;28;20437;-58
2022/09/02 07:51:55;;;;;;;5.50;4.17;;;15.40;94.90;;;;;;5043981;28;20789;-58
2022/09/02 07:54:23;;;;;;;7.43;5.50;;;15.50;94.20;;;;;;5040871;28;20547;-57
2022/09/02 07:56:49;;;;;;;5.70;3.63;;;15.60;93.30;;;;;;5042889;28;20248;-57
2022/09/02 07:59:16;;;;;;;5.00;3.60;;;15.60;92.30;;;;;;5040010;28;20445;-57
2022/09/02 08:01:42;;;;;;;5.50;3.50;;;15.70;91.90;;;;;;5044559;28;20490;-58
2022/09/02 08:04:09;;;;;;;3.67;3.17;;;15.80;92.40;;;;;;5044745;28;20540;-58
2022/09/02 08:06:36;;;;;;;3.70;3.40;;;15.80;93.10;;;;;;5049269;28;20201;-59
2022/09/02 08:09:10;;;;;;;4.40;3.57;;;15.90;93.50;;;;;;5042094;28;20426;-57
2022/09/02 08:11:38;;;;;;;3.87;3.53;;;16.00;93.40;;;;;;5029642;28;20440;-57
2022/09/02 08:14:07;;;;;;;4.77;3.60;;;16.10;92.40;;;;;;5044632;28;20446;-57
2022/09/02 08:16:34;;;;;;;3.87;3.57;;;16.20;92.80;;;;;;5047935;28;20457;-59
2022/09/02 08:18:59;;;;;;;4.83;3.50;;;16.30;92.40;;;;;;5042428;28;20520;-57
2022/09/02 08:21:25;;;;;;;5.57;4.00;;;16.30;92.30;;;;;;5044871;28;20548;-57
2022/09/02 08:23:50;;;;;;;4.00;3.27;;;16.40;91.80;;;;;;5047794;28;20237;-57
2022/09/02 08:26:17;;;;;;;4.83;3.67;;;16.50;90.60;;;;;;5045927;28;20191;-56
2022/09/02 08:28:43;;;;;;;3.73;3.30;;;16.50;90.90;;;;;;5046776;28;20217;-56
2022/09/02 08:31:09;;;;;;;3.97;3.57;;;16.70;90.60;;;;;;5039086;28;20899;-56
2022/09/02 08:33:35;;;;;;;4.37;3.60;;;16.80;90.40;;;;;;5050065;28;20172;-56
2022/09/02 08:36:07;;;;;;;4.30;3.90;;;16.90;89.30;;;;;;5041136;28;20476;-56
2022/09/02 08:38:33;;;;;;;9.23;3.73;;;17.00;90.80;;;;;;5047806;28;20168;-57
2022/09/02 08:41:00;;;;;;;6.00;3.00;;;17.10;90.30;;;;;;5042975;28;20426;-57
2022/09/02 08:43:30;;;;;;;5.43;3.57;;;17.20;85.60;;;;;;5044778;28;20433;-56
2022/09/02 08:46:03;;;;;;;4.63;2.90;;;17.30;82.40;;;;;;5038204;28;20551;-56
2022/09/02 08:48:44;;;;;;;4.30;3.30;;;17.40;79.10;;;;;;5046194;28;20502;-56
2022/09/02 08:51:17;;;;;;;3.70;3.40;;;17.50;79.80;;;;;;5038590;28;20466;-57
2022/09/02 08:53:51;;;;;;;3.60;3.30;;;17.60;81.00;;;;;;5047097;28;20417;-59
2022/09/02 08:56:17;;;;;;;4.83;3.50;;;17.70;82.20;;;;;;5038974;28;20877;-58
2022/09/02 08:58:47;;;;;;;3.40;3.10;;;17.80;81.70;;;;;;5037886;28;20430;-58
2022/09/02 09:01:44;;;;;;;5.97;3.50;;;18.00;78.90;;;;;;5045932;28;20548;-59
2022/09/02 09:04:31;;;;;;;4.03;3.33;;;18.00;74.70;;;;;;5040646;28;20442;-56
2022/09/02 09:07:31;;;;;;;5.17;3.07;;;18.10;75.50;;;;;;5039771;28;20447;-56
2022/09/02 09:10:11;;;;;;;11.13;3.00;;;18.20;72.50;;;;;;5031313;28;20981;-56
2022/09/02 09:13:21;;;;;;;4.83;3.30;;;18.40;72.90;;;;;;5035838;28;20417;-57
2022/09/02 09:16:00;;;;;;;3.90;3.00;;;18.50;72.90;;;;;;5044603;28;20446;-56
2022/09/02 09:18:39;;;;;;;3.50;3.20;;;18.60;70.70;;;;;;5043528;28;20521;-58
2022/09/02 09:21:07;;;;;;;5.50;3.43;;;18.70;72.60;;;;;;5047899;28;20417;-56
2022/09/02 09:23:38;;;;;;;7.37;3.00;;;18.80;68.30;;;;;;5040434;28;20436;-57
2022/09/02 09:26:17;;;;;;;4.13;3.20;;;18.90;67.10;;;;;;5044999;28;21050;-58
2022/09/02 09:28:47;;;;;;;3.90;3.00;;;19.00;68.30;;;;;;5048374;28;20802;-57
2022/09/02 09:31:16;;;;;;;4.00;3.20;;;19.10;68.90;;;;;;5045715;28;20472;-59
2022/09/02 09:34:01;;;;;;;3.90;3.33;;;19.20;68.50;;;;;;5039547;28;20836;-61
2022/09/02 09:36:43;;;;;;;5.30;3.13;;;19.30;66.80;;;;;;5046699;28;20515;-57
2022/09/02 09:39:23;;;;;;;3.20;3.00;;;19.40;66.90;;;;;;5045041;28;20424;-58
2022/09/02 09:41:51;;;;;;;5.00;2.80;;;19.50;65.80;;;;;;5044266;28;20433;-56
2022/09/02 09:44:43;;;;;;;2.67;2.47;;;19.60;62.70;;;;;;5046818;28;20491;-58
2022/09/02 09:47:24;;;;;;;4.33;3.20;;;19.60;61.20;;;;;;5047381;28;20433;-57
2022/09/02 09:50:10;;;;;;;3.77;3.30;;;19.70;61.70;;;;;;5048912;28;20600;-58
2022/09/02 09:52:36;;;;;;;8.03;3.30;;;19.80;61.10;;;;;;5050110;28;20437;-57
2022/09/02 09:55:13;;;;;;;4.70;3.37;;;19.90;62.90;;;;;;5045495;28;20457;-57
2022/09/02 09:57:41;;;;;;;4.30;2.67;;;20.00;62.70;;;;;;5043683;28;21003;-57
2022/09/02 10:00:26;;;;;;;3.80;3.40;;;20.10;62.90;;;;;;5050362;28;20810;-57
2022/09/02 10:02:55;;;;;;;3.53;2.93;;;20.30;63.90;;;;;;5084435;22;20575;-61
2022/09/02 10:05:23;;;;;;;2.90;2.70;;;20.30;62.90;;;;;;5070376;28;20527;-62
2022/09/02 10:08:02;;;;;;;3.50;3.13;;;20.40;61.90;;;;;;5061518;28;20420;-62
2022/09/02 10:10:30;;;;;;;3.37;3.10;;;20.50;60.00;;;;;;5070926;28;20436;-62
2022/09/02 10:13:25;;;;;;;3.10;2.80;;;20.60;60.00;;;;;;5068634;28;20456;-61
2022/09/02 10:16:29;;;;;;;4.73;2.63;;;20.60;60.60;;;;;;5065688;28;20423;-62
2022/09/02 10:19:09;;;;;;;3.57;2.90;;;20.70;61.90;;;;;;5068859;28;20400;-62
2022/09/02 10:21:53;;;;;;;3.47;3.07;;;20.80;61.00;;;;;;5069883;28;20448;-62
2022/09/02 10:24:38;;;;;;;5.10;3.00;;;20.90;62.30;;;;;;5067242;28;20466;-62
2022/09/02 10:27:07;;;;;;;3.47;2.80;;;21.00;61.90;;;;;;5068223;28;20801;-62
2022/09/02 10:30:10;;;;;;;3.40;3.00;;;21.10;61.30;;;;;;5065657;28;20418;-62
2022/09/02 10:33:08;;;;;;;7.37;3.40;;;21.20;61.20;;;;;;5063087;28;20811;-59
2022/09/02 10:35:40;;;;;;;8.10;3.30;;;21.30;60.70;;;;;;5054297;28;20441;-60
2022/09/02 10:38:08;;;;;;;3.80;3.00;;;21.40;60.30;;;;;;5062743;28;20477;-59
2022/09/02 10:40:44;;;;;;;3.37;3.07;;;21.40;59.80;;;;;;5067884;28;20420;-59
2022/09/02 10:43:26;;;;;;;6.00;3.53;;;21.50;58.70;;;;;;5064101;28;20444;-60
2022/09/02 10:46:07;;;;;;;4.57;3.73;;;21.60;59.70;;;;;;5059897;28;20447;-59
2022/09/02 10:48:41;;;;;;;3.70;3.07;;;21.70;60.20;;;;;;5064616;28;20432;-59
2022/09/02 10:51:25;;;;;;;8.60;3.27;;;21.80;59.90;;;;;;5065729;28;20429;-58
2022/09/02 10:54:21;;;;;;;3.20;2.90;;;21.90;58.30;;;;;;5069511;28;20458;-58
2022/09/02 10:56:58;;;;;;;7.17;3.30;;;22.00;58.50;;;;;;5069736;28;20421;-59
2022/09/02 10:59:48;;;;;;;3.27;2.93;;;22.10;58.70;;;;;;5063509;28;20505;-59
2022/09/02 11:02:32;;;;;;;3.50;3.20;;;22.10;58.40;;;;;;5059331;28;20508;-59
2022/09/02 11:05:24;;;;;;;6.30;2.60;;;22.20;56.80;;;;;;5065164;28;20452;-56
2022/09/02 11:08:13;;;;;;;5.73;4.63;;;22.30;57.80;;;;;;5069764;28;20416;-56
2022/09/02 11:10:59;;;;;;;5.17;3.13;;;22.40;58.70;;;;;;5061227;28;20452;-56
2022/09/02 11:13:37;;;;;;;7.43;3.10;;;22.50;58.00;;;;;;5063921;28;20430;-60
2022/09/02 11:16:24;;;;;;;2.93;2.73;;;22.70;58.10;;;;;;5064326;28;20431;-59
2022/09/02 11:18:59;;;;;;;3.80;3.17;;;22.70;56.40;;;;;;5062135;28;20742;-59
2022/09/02 11:22:02;;;;;;;5.00;3.30;;;22.80;56.20;;;;;;5062307;28;20455;-60
2022/09/02 11:24:56;;;;;;;4.50;3.00;;;22.90;56.90;;;;;;5064838;28;20513;-60
2022/09/02 11:27:32;;;;;;;5.17;3.53;;;23.10;58.40;;;;;;5065874;28;20437;-60
2022/09/02 11:30:20;;;;;;;11.60;5.10;;;23.20;57.70;;;;;;5063769;28;20535;-61
2022/09/02 11:33:09;;;;;;;17.27;6.70;;;23.30;56.70;;;;;;5061442;28;20526;-60
2022/09/02 11:35:37;;;;;;;5.27;3.87;;;23.40;55.90;;;;;;5065565;28;20435;-60
2022/09/02 11:38:15;;;;;;;6.33;3.00;;;23.60;55.60;;;;;;5063147;28;20473;-60
2022/09/02 11:40:47;;;;;;;3.90;3.50;;;23.70;55.80;;;;;;5066534;28;20424;-60
2022/09/02 11:43:37;;;;;;;3.70;3.40;;;23.80;55.20;;;;;;5068829;28;20448;-61
2022/09/02 11:46:13;;;;;;;3.30;3.00;;;24.00;55.70;;;;;;5056938;28;20451;-60
2022/09/02 11:49:04;;;;;;;2.90;2.60;;;24.20;55.30;;;;;;5058340;28;20436;-60
2022/09/02 11:52:04;;;;;;;6.27;3.50;;;24.30;54.00;;;;;;5057894;28;20460;-60
2022/09/02 11:54:44;;;;;;;4.07;3.67;;;24.40;53.80;;;;;;5064009;28;20542;-60
2022/09/02 11:57:18;;;;;;;5.97;3.20;;;24.60;53.00;;;;;;5065020;28;20433;-57
2022/09/02 11:59:50;;;;;;;4.77;3.90;;;24.70;50.60;;;;;;5067698;28;21106;-60
2022/09/02 12:02:32;;;;;;;9.33;5.60;;;24.70;50.80;;;;;;5063290;28;20521;-61
2022/09/02 12:05:30;;;;;;;7.13;3.17;;;24.70;51.30;;;;;;5063304;28;20984;-61
2022/09/02 12:08:11;;;;;;;5.70;3.13;;;24.70;49.70;;;;;;5058897;28;22657;-59
2022/09/02 12:13:08;;;;;;;3.47;3.10;;;24.70;49.20;;;;;;5059038;28;20445;-61
2022/09/02 12:15:34;;;;;;;3.73;2.90;;;24.60;51.20;;;;;;5064129;28;20955;-60
2022/09/02 12:18:27;;;;;;;4.40;2.70;;;24.80;51.20;;;;;;5066363;28;20437;-61
2022/09/02 12:20:58;;;;;;;4.57;3.20;;;24.90;49.90;;;;;;5061521;28;20194;-61
2022/09/02 12:23:52;;;;;;;5.17;3.13;;;25.10;48.80;;;;;;5063139;28;20459;-59
2022/09/02 12:26:19;;;;;;;3.30;3.00;;;25.40;49.60;;;;;;5056200;28;20951;-59
2022/09/02 12:28:47;;;;;;;3.20;2.90;;;25.60;49.70;;;;;;5057320;28;20804;-59
2022/09/02 12:31:39;;;;;;;10.23;3.73;;;25.80;50.40;;;;;;5063786;28;20439;-59
2022/09/02 12:34:21;;;;;;;4.33;2.70;;;26.00;50.30;;;;;;5066156;28;20507;-60
2022/09/02 12:36:50;;;;;;;4.80;2.47;;;26.20;49.40;;;;;;5061775;28;20432;-60
2022/09/02 12:39:26;;;;;;;5.57;2.67;;;26.40;49.20;;;;;;5065291;28;20727;-60
2022/09/02 12:42:08;;;;;;;3.80;2.33;;;26.50;48.50;;;;;;5064924;28;20529;-60
2022/09/02 12:44:45;;;;;;;2.87;2.67;;;26.60;47.50;;;;;;5054912;28;20503;-60
2022/09/02 12:47:24;;;;;;;2.93;2.70;;;26.70;47.30;;;;;;5065356;28;20432;-60
2022/09/02 12:50:05;;;;;;;2.70;2.47;;;26.70;47.20;;;;;;5064641;28;20426;-61
2022/09/02 12:52:34;;;;;;;2.87;2.57;;;26.80;46.10;;;;;;5059957;28;20887;-60
2022/09/02 12:55:17;;;;;;;2.40;2.20;;;26.80;46.00;;;;;;5060919;28;20467;-60
2022/09/02 12:57:50;;;;;;;3.27;2.40;;;26.80;45.70;;;;;;5062874;28;20523;-60
2022/09/02 13:00:42;;;;;;;2.60;2.40;;;26.90;45.50;;;;;;5065722;28;21245;-61
2022/09/02 13:03:32;;;;;;;3.27;2.27;;;27.10;46.20;;;;;;5062240;28;20495;-61
2022/09/02 13:06:16;;;;;;;2.43;2.30;;;27.20;45.00;;;;;;5063104;28;20420;-61
2022/09/02 13:09:06;;;;;;;2.60;2.40;;;27.30;45.00;;;;;;5064475;28;20436;-61
2022/09/02 13:11:32;;;;;;;3.57;2.40;;;27.40;44.80;;;;;;5057251;28;20471;-60
2022/09/02 13:14:13;;;;;;;10.90;2.80;;;27.60;44.70;;;;;;5061907;28;20965;-60
2022/09/02 13:16:45;;;;;;;3.03;2.47;;;27.70;44.60;;;;;;5061068;28;20608;-59